sensor_id;sensor_type;location;lat;lon;timestamp;P1;durP1;ratioP1;P2;durP2;ratioP2
13090;SDS011;6611;52.604;13.438;2024-02-21T00:02:16;13.93;;;5.70;;
13090;SDS011;6611;52.604;13.438;2024-02-21T00:07:18;10.07;;;4.70;;
13090;SDS011;6611;52.604;13.438;2024-02-21T00:12:21;14.97;;;5.33;;
13090;SDS011;6611;52.604;13.438;2024-02-21T00:17:22;13.50;;;4.60;;
13090;SDS011;6611;52.604;13.438;2024-02-21T00:22:26;9.10;;;4.43;;
13090;SDS011;6611;52.604;13.438;2024-02-21T00:27:30;10.93;;;4.77;;
13090;SDS011;6611;52.604;13.438;2024-02-21T00:32:32;9.87;;;4.40;;
13090;SDS011;6611;52.604;13.438;2024-02-21T00:37:34;10.43;;;4.23;;
13090;SDS011;6611;52.604;13.438;2024-02-21T00:42:37;12.27;;;4.27;;
13090;SDS011;6611;52.604;13.438;2024-02-21T00:47:39;14.00;;;4.23;;
13090;SDS011;6611;52.604;13.438;2024-02-21T00:52:40;11.57;;;3.93;;
13090;SDS011;6611;52.604;13.438;2024-02-21T00:57:44;8.93;;;4.23;;
13090;SDS011;6611;52.604;13.438;2024-02-21T01:02:45;11.47;;;4.03;;
13090;SDS011;6611;52.604;13.438;2024-02-21T01:07:47;11.80;;;4.27;;
13090;SDS011;6611;52.604;13.438;2024-02-21T01:12:50;13.83;;;4.60;;
13090;SDS011;6611;52.604;13.438;2024-02-21T01:17:52;10.83;;;4.30;;
13090;SDS011;6611;52.604;13.438;2024-02-21T01:22:54;13.37;;;4.27;;
13090;SDS011;6611;52.604;13.438;2024-02-21T01:27:57;11.40;;;4.40;;
13090;SDS011;6611;52.604;13.438;2024-02-21T01:32:59;10.33;;;3.83;;
13090;SDS011;6611;52.604;13.438;2024-02-21T01:38:00;10.67;;;4.17;;
13090;SDS011;6611;52.604;13.438;2024-02-21T01:43:04;8.90;;;3.93;;
13090;SDS011;6611;52.604;13.438;2024-02-21T01:48:18;9.57;;;3.90;;
13090;SDS011;6611;52.604;13.438;2024-02-21T01:53:21;11.30;;;3.77;;
13090;SDS011;6611;52.604;13.438;2024-02-21T01:58:25;10.67;;;4.03;;
13090;SDS011;6611;52.604;13.438;2024-02-21T02:03:29;9.97;;;4.00;;
13090;SDS011;6611;52.604;13.438;2024-02-21T02:08:32;10.97;;;3.40;;
13090;SDS011;6611;52.604;13.438;2024-02-21T02:13:35;8.20;;;3.90;;
13090;SDS011;6611;52.604;13.438;2024-02-21T02:18:37;9.33;;;4.10;;
13090;SDS011;6611;52.604;13.438;2024-02-21T02:23:40;10.40;;;3.90;;
13090;SDS011;6611;52.604;13.438;2024-02-21T02:28:43;10.70;;;3.70;;
13090;SDS011;6611;52.604;13.438;2024-02-21T02:33:45;12.17;;;3.90;;
13090;SDS011;6611;52.604;13.438;2024-02-21T02:38:48;11.07;;;4.30;;
13090;SDS011;6611;52.604;13.438;2024-02-21T02:43:49;11.83;;;4.03;;
13090;SDS011;6611;52.604;13.438;2024-02-21T02:48:51;11.10;;;4.50;;
13090;SDS011;6611;52.604;13.438;2024-02-21T02:53:54;9.60;;;3.67;;
13090;SDS011;6611;52.604;13.438;2024-02-21T02:58:57;14.40;;;4.73;;
13090;SDS011;6611;52.604;13.438;2024-02-21T03:03:58;10.13;;;4.23;;
13090;SDS011;6611;52.604;13.438;2024-02-21T03:09:01;12.10;;;4.57;;
13090;SDS011;6611;52.604;13.438;2024-02-21T03:14:08;11.47;;;4.80;;
13090;SDS011;6611;52.604;13.438;2024-02-21T03:19:10;13.07;;;5.50;;
13090;SDS011;6611;52.604;13.438;2024-02-21T03:24:13;11.03;;;5.00;;
13090;SDS011;6611;52.604;13.438;2024-02-21T03:29:15;13.83;;;4.87;;
13090;SDS011;6611;52.604;13.438;2024-02-21T03:34:17;11.37;;;5.37;;
13090;SDS011;6611;52.604;13.438;2024-02-21T03:39:20;10.43;;;4.73;;
13090;SDS011;6611;52.604;13.438;2024-02-21T03:44:22;12.67;;;5.40;;
13090;SDS011;6611;52.604;13.438;2024-02-21T03:49:24;12.23;;;4.97;;
13090;SDS011;6611;52.604;13.438;2024-02-21T03:54:27;13.33;;;5.30;;
13090;SDS011;6611;52.604;13.438;2024-02-21T03:59:28;10.93;;;5.17;;
13090;SDS011;6611;52.604;13.438;2024-02-21T04:04:30;12.67;;;5.73;;
13090;SDS011;6611;52.604;13.438;2024-02-21T04:09:33;8.83;;;5.33;;
13090;SDS011;6611;52.604;13.438;2024-02-21T04:14:35;14.67;;;5.87;;
13090;SDS011;6611;52.604;13.438;2024-02-21T04:19:36;12.50;;;5.83;;
13090;SDS011;6611;52.604;13.438;2024-02-21T04:24:40;12.90;;;5.50;;
13090;SDS011;6611;52.604;13.438;2024-02-21T04:29:41;13.13;;;6.00;;
13090;SDS011;6611;52.604;13.438;2024-02-21T04:34:43;10.70;;;5.60;;
13090;SDS011;6611;52.604;13.438;2024-02-21T04:39:46;13.73;;;5.97;;
13090;SDS011;6611;52.604;13.438;2024-02-21T04:44:48;10.83;;;5.57;;
13090;SDS011;6611;52.604;13.438;2024-02-21T04:49:49;10.70;;;6.03;;
13090;SDS011;6611;52.604;13.438;2024-02-21T04:54:52;15.33;;;6.80;;
13090;SDS011;6611;52.604;13.438;2024-02-21T04:59:54;11.40;;;5.47;;
13090;SDS011;6611;52.604;13.438;2024-02-21T05:04:55;17.13;;;7.43;;
13090;SDS011;6611;52.604;13.438;2024-02-21T05:09:58;12.40;;;5.73;;
13090;SDS011;6611;52.604;13.438;2024-02-21T05:15:00;12.97;;;6.20;;
13090;SDS011;6611;52.604;13.438;2024-02-21T05:20:03;13.50;;;6.63;;
13090;SDS011;6611;52.604;13.438;2024-02-21T05:25:07;12.67;;;6.67;;
13090;SDS011;6611;52.604;13.438;2024-02-21T05:30:10;13.43;;;6.00;;
13090;SDS011;6611;52.604;13.438;2024-02-21T05:35:12;12.57;;;7.03;;
13090;SDS011;6611;52.604;13.438;2024-02-21T05:40:15;17.53;;;7.20;;
13090;SDS011;6611;52.604;13.438;2024-02-21T05:45:16;15.67;;;6.27;;
13090;SDS011;6611;52.604;13.438;2024-02-21T05:50:18;9.47;;;6.03;;
13090;SDS011;6611;52.604;13.438;2024-02-21T05:55:23;14.63;;;6.10;;
13090;SDS011;6611;52.604;13.438;2024-02-21T06:00:25;13.27;;;7.30;;
13090;SDS011;6611;52.604;13.438;2024-02-21T06:05:27;16.67;;;7.13;;
13090;SDS011;6611;52.604;13.438;2024-02-21T06:10:30;11.40;;;6.47;;
13090;SDS011;6611;52.604;13.438;2024-02-21T06:15:32;15.53;;;7.37;;
13090;SDS011;6611;52.604;13.438;2024-02-21T06:20:33;15.23;;;7.07;;
13090;SDS011;6611;52.604;13.438;2024-02-21T06:25:40;11.57;;;6.40;;
13090;SDS011;6611;52.604;13.438;2024-02-21T06:30:42;14.07;;;6.87;;
13090;SDS011;6611;52.604;13.438;2024-02-21T06:35:43;12.63;;;6.70;;
13090;SDS011;6611;52.604;13.438;2024-02-21T06:40:48;15.13;;;6.77;;
13090;SDS011;6611;52.604;13.438;2024-02-21T06:45:52;15.20;;;7.33;;
13090;SDS011;6611;52.604;13.438;2024-02-21T06:50:54;15.40;;;7.40;;
13090;SDS011;6611;52.604;13.438;2024-02-21T06:55:57;12.83;;;6.70;;
13090;SDS011;6611;52.604;13.438;2024-02-21T07:00:59;12.80;;;7.47;;
13090;SDS011;6611;52.604;13.438;2024-02-21T07:06:00;13.57;;;6.47;;
13090;SDS011;6611;52.604;13.438;2024-02-21T07:11:04;15.20;;;6.87;;
13090;SDS011;6611;52.604;13.438;2024-02-21T07:16:06;13.13;;;6.97;;
13090;SDS011;6611;52.604;13.438;2024-02-21T07:21:08;13.07;;;7.50;;
13090;SDS011;6611;52.604;13.438;2024-02-21T07:26:11;13.27;;;6.73;;
13090;SDS011;6611;52.604;13.438;2024-02-21T07:31:12;13.57;;;7.40;;
13090;SDS011;6611;52.604;13.438;2024-02-21T07:36:14;13.33;;;6.73;;
13090;SDS011;6611;52.604;13.438;2024-02-21T07:41:18;13.90;;;6.60;;
13090;SDS011;6611;52.604;13.438;2024-02-21T07:46:19;14.17;;;7.13;;
13090;SDS011;6611;52.604;13.438;2024-02-21T07:51:21;12.43;;;6.73;;
13090;SDS011;6611;52.604;13.438;2024-02-21T07:56:27;11.67;;;6.53;;
13090;SDS011;6611;52.604;13.438;2024-02-21T08:01:28;10.50;;;6.30;;
13090;SDS011;6611;52.604;13.438;2024-02-21T08:06:30;13.77;;;6.63;;
13090;SDS011;6611;52.604;13.438;2024-02-21T08:11:34;11.83;;;6.80;;
13090;SDS011;6611;52.604;13.438;2024-02-21T08:16:35;11.97;;;6.20;;
13090;SDS011;6611;52.604;13.438;2024-02-21T08:21:37;14.60;;;5.77;;
13090;SDS011;6611;52.604;13.438;2024-02-21T08:26:41;11.97;;;5.83;;
13090;SDS011;6611;52.604;13.438;2024-02-21T08:31:42;11.53;;;6.43;;
13090;SDS011;6611;52.604;13.438;2024-02-21T08:36:44;13.60;;;5.90;;
13090;SDS011;6611;52.604;13.438;2024-02-21T08:41:47;13.77;;;5.77;;
13090;SDS011;6611;52.604;13.438;2024-02-21T08:46:49;14.50;;;5.87;;
13090;SDS011;6611;52.604;13.438;2024-02-21T08:51:50;12.00;;;6.80;;
13090;SDS011;6611;52.604;13.438;2024-02-21T08:56:53;10.23;;;6.07;;
13090;SDS011;6611;52.604;13.438;2024-02-21T09:01:55;11.87;;;6.30;;
13090;SDS011;6611;52.604;13.438;2024-02-21T09:06:57;15.47;;;7.23;;
13090;SDS011;6611;52.604;13.438;2024-02-21T09:12:00;11.83;;;6.97;;
13090;SDS011;6611;52.604;13.438;2024-02-21T09:17:05;9.47;;;6.13;;
13090;SDS011;6611;52.604;13.438;2024-02-21T09:22:07;11.03;;;6.63;;
13090;SDS011;6611;52.604;13.438;2024-02-21T09:27:10;11.73;;;6.70;;
13090;SDS011;6611;52.604;13.438;2024-02-21T09:32:12;11.47;;;6.43;;
13090;SDS011;6611;52.604;13.438;2024-02-21T09:37:14;13.20;;;7.07;;
13090;SDS011;6611;52.604;13.438;2024-02-21T09:42:17;11.60;;;7.23;;
13090;SDS011;6611;52.604;13.438;2024-02-21T09:47:22;11.00;;;7.13;;
13090;SDS011;6611;52.604;13.438;2024-02-21T09:52:32;11.03;;;7.20;;
13090;SDS011;6611;52.604;13.438;2024-02-21T09:57:38;12.03;;;7.40;;
13090;SDS011;6611;52.604;13.438;2024-02-21T10:02:40;10.33;;;7.03;;
13090;SDS011;6611;52.604;13.438;2024-02-21T10:07:42;12.60;;;7.27;;
13090;SDS011;6611;52.604;13.438;2024-02-21T10:12:51;10.20;;;6.60;;
13090;SDS011;6611;52.604;13.438;2024-02-21T10:17:58;14.17;;;6.53;;
13090;SDS011;6611;52.604;13.438;2024-02-21T10:23:00;10.70;;;6.93;;
13090;SDS011;6611;52.604;13.438;2024-02-21T10:28:05;12.00;;;6.40;;
13090;SDS011;6611;52.604;13.438;2024-02-21T10:33:06;10.20;;;6.73;;
13090;SDS011;6611;52.604;13.438;2024-02-21T10:38:08;11.90;;;6.73;;
13090;SDS011;6611;52.604;13.438;2024-02-21T10:43:12;15.40;;;7.07;;
13090;SDS011;6611;52.604;13.438;2024-02-21T10:48:15;11.40;;;6.20;;
13090;SDS011;6611;52.604;13.438;2024-02-21T10:53:18;9.37;;;6.43;;
13090;SDS011;6611;52.604;13.438;2024-02-21T10:58:27;9.83;;;5.97;;
13090;SDS011;6611;52.604;13.438;2024-02-21T11:03:30;10.23;;;5.93;;
13090;SDS011;6611;52.604;13.438;2024-02-21T11:08:32;6.33;;;5.47;;
13090;SDS011;6611;52.604;13.438;2024-02-21T11:13:37;9.63;;;5.30;;
13090;SDS011;6611;52.604;13.438;2024-02-21T11:18:39;10.57;;;5.63;;
13090;SDS011;6611;52.604;13.438;2024-02-21T11:23:40;8.13;;;5.67;;
13090;SDS011;6611;52.604;13.438;2024-02-21T11:28:43;8.20;;;5.67;;
13090;SDS011;6611;52.604;13.438;2024-02-21T11:33:45;7.63;;;5.00;;
13090;SDS011;6611;52.604;13.438;2024-02-21T11:38:49;10.30;;;5.47;;
13090;SDS011;6611;52.604;13.438;2024-02-21T11:43:52;9.13;;;5.00;;
13090;SDS011;6611;52.604;13.438;2024-02-21T11:48:53;6.30;;;4.60;;
13090;SDS011;6611;52.604;13.438;2024-02-21T11:53:56;9.50;;;5.23;;
13090;SDS011;6611;52.604;13.438;2024-02-21T11:59:00;8.30;;;4.80;;
13090;SDS011;6611;52.604;13.438;2024-02-21T12:04:03;8.60;;;4.97;;
13090;SDS011;6611;52.604;13.438;2024-02-21T12:09:07;4.83;;;3.83;;
13090;SDS011;6611;52.604;13.438;2024-02-21T12:14:15;4.73;;;3.67;;
13090;SDS011;6611;52.604;13.438;2024-02-21T12:19:18;3.90;;;3.50;;
13090;SDS011;6611;52.604;13.438;2024-02-21T12:24:21;7.77;;;4.03;;
13090;SDS011;6611;52.604;13.438;2024-02-21T12:29:25;5.00;;;3.47;;
13090;SDS011;6611;52.604;13.438;2024-02-21T12:34:27;5.57;;;3.83;;
13090;SDS011;6611;52.604;13.438;2024-02-21T12:39:31;7.30;;;3.73;;
13090;SDS011;6611;52.604;13.438;2024-02-21T12:44:35;4.77;;;3.37;;
13090;SDS011;6611;52.604;13.438;2024-02-21T12:49:36;3.77;;;3.17;;
13090;SDS011;6611;52.604;13.438;2024-02-21T12:54:38;7.57;;;3.77;;
13090;SDS011;6611;52.604;13.438;2024-02-21T12:59:41;2.87;;;2.53;;
13090;SDS011;6611;52.604;13.438;2024-02-21T13:04:42;3.00;;;2.07;;
13090;SDS011;6611;52.604;13.438;2024-02-21T13:09:46;3.63;;;2.60;;
13090;SDS011;6611;52.604;13.438;2024-02-21T13:14:49;4.07;;;2.23;;
13090;SDS011;6611;52.604;13.438;2024-02-21T13:19:51;4.20;;;2.40;;
13090;SDS011;6611;52.604;13.438;2024-02-21T13:24:53;2.60;;;2.40;;
13090;SDS011;6611;52.604;13.438;2024-02-21T13:29:56;5.63;;;2.47;;
13090;SDS011;6611;52.604;13.438;2024-02-21T13:34:58;3.60;;;2.23;;
13090;SDS011;6611;52.604;13.438;2024-02-21T13:40:01;3.90;;;2.73;;
13090;SDS011;6611;52.604;13.438;2024-02-21T13:45:06;6.07;;;3.37;;
13090;SDS011;6611;52.604;13.438;2024-02-21T13:50:08;5.27;;;3.20;;
13090;SDS011;6611;52.604;13.438;2024-02-21T13:55:10;5.67;;;3.30;;
13090;SDS011;6611;52.604;13.438;2024-02-21T14:00:14;5.37;;;3.00;;
13090;SDS011;6611;52.604;13.438;2024-02-21T14:05:18;4.23;;;2.83;;
13090;SDS011;6611;52.604;13.438;2024-02-21T14:10:20;4.27;;;3.03;;
13090;SDS011;6611;52.604;13.438;2024-02-21T14:15:23;6.07;;;2.87;;
13090;SDS011;6611;52.604;13.438;2024-02-21T14:20:25;6.40;;;3.30;;
13090;SDS011;6611;52.604;13.438;2024-02-21T14:25:27;5.10;;;3.00;;
13090;SDS011;6611;52.604;13.438;2024-02-21T14:30:30;6.90;;;2.93;;
13090;SDS011;6611;52.604;13.438;2024-02-21T14:35:32;4.93;;;2.93;;
13090;SDS011;6611;52.604;13.438;2024-02-21T14:40:34;4.00;;;2.53;;
13090;SDS011;6611;52.604;13.438;2024-02-21T14:45:37;4.83;;;3.13;;
13090;SDS011;6611;52.604;13.438;2024-02-21T14:50:40;4.53;;;2.77;;
13090;SDS011;6611;52.604;13.438;2024-02-21T14:55:42;7.47;;;2.80;;
13090;SDS011;6611;52.604;13.438;2024-02-21T15:00:45;5.03;;;2.93;;
13090;SDS011;6611;52.604;13.438;2024-02-21T15:05:47;7.20;;;3.50;;
13090;SDS011;6611;52.604;13.438;2024-02-21T15:10:48;3.57;;;2.60;;
13090;SDS011;6611;52.604;13.438;2024-02-21T15:15:52;5.73;;;2.57;;
13090;SDS011;6611;52.604;13.438;2024-02-21T15:20:54;5.43;;;2.13;;
13090;SDS011;6611;52.604;13.438;2024-02-21T15:25:56;4.83;;;2.67;;
13090;SDS011;6611;52.604;13.438;2024-02-21T15:31:01;4.93;;;2.43;;
13090;SDS011;6611;52.604;13.438;2024-02-21T15:36:04;5.67;;;2.40;;
13090;SDS011;6611;52.604;13.438;2024-02-21T15:41:06;3.53;;;2.30;;
13090;SDS011;6611;52.604;13.438;2024-02-21T15:46:11;3.80;;;2.17;;
13090;SDS011;6611;52.604;13.438;2024-02-21T15:51:13;4.43;;;1.80;;
13090;SDS011;6611;52.604;13.438;2024-02-21T15:56:15;6.13;;;2.50;;
13090;SDS011;6611;52.604;13.438;2024-02-21T16:01:18;5.13;;;2.00;;
13090;SDS011;6611;52.604;13.438;2024-02-21T16:06:19;3.30;;;1.87;;
13090;SDS011;6611;52.604;13.438;2024-02-21T16:11:21;3.63;;;2.10;;
13090;SDS011;6611;52.604;13.438;2024-02-21T16:16:24;4.80;;;2.00;;
13090;SDS011;6611;52.604;13.438;2024-02-21T16:21:26;5.10;;;2.30;;
13090;SDS011;6611;52.604;13.438;2024-02-21T16:26:28;3.73;;;2.47;;
13090;SDS011;6611;52.604;13.438;2024-02-21T16:31:31;5.33;;;2.17;;
13090;SDS011;6611;52.604;13.438;2024-02-21T16:36:32;6.57;;;3.10;;
13090;SDS011;6611;52.604;13.438;2024-02-21T16:41:34;6.53;;;2.97;;
13090;SDS011;6611;52.604;13.438;2024-02-21T16:46:37;7.37;;;3.20;;
13090;SDS011;6611;52.604;13.438;2024-02-21T16:51:38;6.10;;;3.30;;
13090;SDS011;6611;52.604;13.438;2024-02-21T16:56:40;5.83;;;3.23;;
13090;SDS011;6611;52.604;13.438;2024-02-21T17:01:43;9.90;;;3.47;;
13090;SDS011;6611;52.604;13.438;2024-02-21T17:06:46;7.47;;;3.57;;
13090;SDS011;6611;52.604;13.438;2024-02-21T17:11:47;8.27;;;3.33;;
13090;SDS011;6611;52.604;13.438;2024-02-21T17:16:51;4.33;;;3.10;;
13090;SDS011;6611;52.604;13.438;2024-02-21T17:21:54;6.60;;;2.83;;
13090;SDS011;6611;52.604;13.438;2024-02-21T17:26:56;8.23;;;3.50;;
13090;SDS011;6611;52.604;13.438;2024-02-21T17:31:59;6.90;;;3.50;;
13090;SDS011;6611;52.604;13.438;2024-02-21T17:37:01;6.13;;;3.57;;
13090;SDS011;6611;52.604;13.438;2024-02-21T17:42:03;5.13;;;3.37;;
13090;SDS011;6611;52.604;13.438;2024-02-21T17:47:06;9.37;;;5.37;;
13090;SDS011;6611;52.604;13.438;2024-02-21T17:52:07;4.70;;;3.40;;
13090;SDS011;6611;52.604;13.438;2024-02-21T17:57:09;8.50;;;3.83;;
13090;SDS011;6611;52.604;13.438;2024-02-21T18:02:12;6.23;;;3.20;;
13090;SDS011;6611;52.604;13.438;2024-02-21T18:07:19;15.53;;;4.33;;
13090;SDS011;6611;52.604;13.438;2024-02-21T18:12:21;6.77;;;4.33;;
13090;SDS011;6611;52.604;13.438;2024-02-21T18:17:25;4.80;;;3.27;;
13090;SDS011;6611;52.604;13.438;2024-02-21T18:22:26;7.00;;;3.30;;
13090;SDS011;6611;52.604;13.438;2024-02-21T18:27:28;8.53;;;3.70;;
13090;SDS011;6611;52.604;13.438;2024-02-21T18:32:31;9.00;;;3.70;;
13090;SDS011;6611;52.604;13.438;2024-02-21T18:37:33;7.70;;;4.13;;
13090;SDS011;6611;52.604;13.438;2024-02-21T18:42:34;8.03;;;3.97;;
13090;SDS011;6611;52.604;13.438;2024-02-21T18:47:37;8.50;;;4.53;;
13090;SDS011;6611;52.604;13.438;2024-02-21T18:52:39;7.37;;;4.00;;
13090;SDS011;6611;52.604;13.438;2024-02-21T18:57:41;6.57;;;4.10;;
13090;SDS011;6611;52.604;13.438;2024-02-21T19:02:44;8.23;;;4.17;;
13090;SDS011;6611;52.604;13.438;2024-02-21T19:07:47;7.90;;;4.43;;
13090;SDS011;6611;52.604;13.438;2024-02-21T19:12:49;10.47;;;5.13;;
13090;SDS011;6611;52.604;13.438;2024-02-21T19:17:52;7.90;;;4.80;;
13090;SDS011;6611;52.604;13.438;2024-02-21T19:22:54;8.43;;;4.93;;
13090;SDS011;6611;52.604;13.438;2024-02-21T19:27:55;11.67;;;5.97;;
13090;SDS011;6611;52.604;13.438;2024-02-21T19:32:58;10.63;;;5.17;;
13090;SDS011;6611;52.604;13.438;2024-02-21T19:38:00;9.53;;;4.80;;
13090;SDS011;6611;52.604;13.438;2024-02-21T19:43:03;8.37;;;5.20;;
13090;SDS011;6611;52.604;13.438;2024-02-21T19:48:06;8.70;;;4.67;;
13090;SDS011;6611;52.604;13.438;2024-02-21T19:53:08;10.33;;;5.17;;
13090;SDS011;6611;52.604;13.438;2024-02-21T19:58:10;9.33;;;5.13;;
13090;SDS011;6611;52.604;13.438;2024-02-21T20:03:13;6.00;;;4.47;;
13090;SDS011;6611;52.604;13.438;2024-02-21T20:08:15;5.57;;;3.70;;
13090;SDS011;6611;52.604;13.438;2024-02-21T20:13:17;7.53;;;4.37;;
13090;SDS011;6611;52.604;13.438;2024-02-21T20:18:21;6.33;;;4.23;;
13090;SDS011;6611;52.604;13.438;2024-02-21T20:23:22;7.00;;;4.03;;
13090;SDS011;6611;52.604;13.438;2024-02-21T20:28:24;10.00;;;4.77;;
13090;SDS011;6611;52.604;13.438;2024-02-21T20:33:27;8.90;;;4.53;;
13090;SDS011;6611;52.604;13.438;2024-02-21T20:38:29;8.93;;;4.50;;
13090;SDS011;6611;52.604;13.438;2024-02-21T20:43:31;7.50;;;4.03;;
13090;SDS011;6611;52.604;13.438;2024-02-21T20:48:34;5.53;;;4.00;;
13090;SDS011;6611;52.604;13.438;2024-02-21T20:53:36;6.43;;;4.33;;
13090;SDS011;6611;52.604;13.438;2024-02-21T20:58:38;7.33;;;3.80;;
13090;SDS011;6611;52.604;13.438;2024-02-21T21:03:41;4.30;;;3.17;;
13090;SDS011;6611;52.604;13.438;2024-02-21T21:08:43;7.80;;;3.83;;
13090;SDS011;6611;52.604;13.438;2024-02-21T21:13:45;6.13;;;3.37;;
13090;SDS011;6611;52.604;13.438;2024-02-21T21:18:48;5.40;;;3.10;;
13090;SDS011;6611;52.604;13.438;2024-02-21T21:23:50;6.03;;;3.00;;
13090;SDS011;6611;52.604;13.438;2024-02-21T21:28:52;7.37;;;3.10;;
13090;SDS011;6611;52.604;13.438;2024-02-21T21:33:58;5.20;;;3.57;;
13090;SDS011;6611;52.604;13.438;2024-02-21T21:38:59;8.60;;;3.27;;
13090;SDS011;6611;52.604;13.438;2024-02-21T21:44:04;6.33;;;3.10;;
13090;SDS011;6611;52.604;13.438;2024-02-21T21:49:07;5.20;;;2.97;;
13090;SDS011;6611;52.604;13.438;2024-02-21T21:54:09;5.27;;;2.60;;
13090;SDS011;6611;52.604;13.438;2024-02-21T21:59:11;4.90;;;2.63;;
13090;SDS011;6611;52.604;13.438;2024-02-21T22:04:14;6.30;;;2.80;;
13090;SDS011;6611;52.604;13.438;2024-02-21T22:09:16;4.37;;;2.70;;
13090;SDS011;6611;52.604;13.438;2024-02-21T22:14:17;4.73;;;2.60;;
13090;SDS011;6611;52.604;13.438;2024-02-21T22:19:20;5.03;;;2.33;;
13090;SDS011;6611;52.604;13.438;2024-02-21T22:24:22;6.13;;;2.80;;
13090;SDS011;6611;52.604;13.438;2024-02-21T22:29:23;6.27;;;2.60;;
13090;SDS011;6611;52.604;13.438;2024-02-21T22:34:28;5.10;;;2.63;;
13090;SDS011;6611;52.604;13.438;2024-02-21T22:39:30;4.90;;;2.60;;
13090;SDS011;6611;52.604;13.438;2024-02-21T22:44:32;3.80;;;2.37;;
13090;SDS011;6611;52.604;13.438;2024-02-21T22:49:36;3.13;;;1.93;;
13090;SDS011;6611;52.604;13.438;2024-02-21T22:54:38;5.03;;;2.50;;
13090;SDS011;6611;52.604;13.438;2024-02-21T22:59:40;4.73;;;2.20;;
13090;SDS011;6611;52.604;13.438;2024-02-21T23:04:43;2.90;;;2.00;;
13090;SDS011;6611;52.604;13.438;2024-02-21T23:09:44;4.20;;;1.87;;
13090;SDS011;6611;52.604;13.438;2024-02-21T23:14:46;3.57;;;2.27;;
13090;SDS011;6611;52.604;13.438;2024-02-21T23:19:49;4.10;;;2.00;;
13090;SDS011;6611;52.604;13.438;2024-02-21T23:24:51;4.37;;;2.40;;
13090;SDS011;6611;52.604;13.438;2024-02-21T23:29:52;6.53;;;2.00;;
13090;SDS011;6611;52.604;13.438;2024-02-21T23:34:55;9.47;;;2.20;;
13090;SDS011;6611;52.604;13.438;2024-02-21T23:39:58;3.80;;;2.10;;
13090;SDS011;6611;52.604;13.438;2024-02-21T23:44:59;3.77;;;2.00;;
13090;SDS011;6611;52.604;13.438;2024-02-21T23:50:05;4.20;;;1.70;;
13090;SDS011;6611;52.604;13.438;2024-02-21T23:55:07;4.87;;;2.20;;
